sensor_id;sensor_type;location;lat;lon;timestamp;P1;durP1;ratioP1;P2;durP2;ratioP2
4096;SDS011;2062;50.694;7.246;2022-12-07T00:01:50;6.43;;;2.20;;
4096;SDS011;2062;50.694;7.246;2022-12-07T00:04:19;5.10;;;2.10;;
4096;SDS011;2062;50.694;7.246;2022-12-07T00:06:46;5.30;;;2.05;;
4096;SDS011;2062;50.694;7.246;2022-12-07T00:09:18;5.45;;;2.15;;
4096;SDS011;2062;50.694;7.246;2022-12-07T00:11:48;5.00;;;1.92;;
4096;SDS011;2062;50.694;7.246;2022-12-07T00:14:16;5.27;;;2.13;;
4096;SDS011;2062;50.694;7.246;2022-12-07T00:16:43;5.63;;;2.50;;
4096;SDS011;2062;50.694;7.246;2022-12-07T00:19:11;5.07;;;2.03;;
4096;SDS011;2062;50.694;7.246;2022-12-07T00:21:38;5.35;;;2.33;;
4096;SDS011;2062;50.694;7.246;2022-12-07T00:24:05;6.05;;;2.30;;
4096;SDS011;2062;50.694;7.246;2022-12-07T00:26:34;4.90;;;1.93;;
4096;SDS011;2062;50.694;7.246;2022-12-07T00:29:03;4.47;;;1.95;;
4096;SDS011;2062;50.694;7.246;2022-12-07T00:31:32;5.50;;;2.00;;
4096;SDS011;2062;50.694;7.246;2022-12-07T00:34:03;5.47;;;1.95;;
4096;SDS011;2062;50.694;7.246;2022-12-07T00:36:31;4.55;;;2.00;;
4096;SDS011;2062;50.694;7.246;2022-12-07T00:38:58;5.30;;;2.10;;
4096;SDS011;2062;50.694;7.246;2022-12-07T00:41:26;5.80;;;2.05;;
4096;SDS011;2062;50.694;7.246;2022-12-07T00:43:55;4.80;;;1.88;;
4096;SDS011;2062;50.694;7.246;2022-12-07T00:46:23;5.13;;;2.20;;
4096;SDS011;2062;50.694;7.246;2022-12-07T00:48:50;5.38;;;2.20;;
4096;SDS011;2062;50.694;7.246;2022-12-07T00:51:19;4.83;;;2.20;;
4096;SDS011;2062;50.694;7.246;2022-12-07T00:53:47;4.90;;;2.08;;
4096;SDS011;2062;50.694;7.246;2022-12-07T00:56:14;4.78;;;2.03;;
4096;SDS011;2062;50.694;7.246;2022-12-07T00:58:42;5.25;;;2.08;;
4096;SDS011;2062;50.694;7.246;2022-12-07T01:01:11;4.57;;;1.98;;
4096;SDS011;2062;50.694;7.246;2022-12-07T01:03:37;5.57;;;1.90;;
4096;SDS011;2062;50.694;7.246;2022-12-07T01:06:04;5.30;;;2.15;;
4096;SDS011;2062;50.694;7.246;2022-12-07T01:08:32;5.15;;;2.28;;
4096;SDS011;2062;50.694;7.246;2022-12-07T01:10:59;5.35;;;2.20;;
4096;SDS011;2062;50.694;7.246;2022-12-07T01:13:27;4.97;;;2.10;;
4096;SDS011;2062;50.694;7.246;2022-12-07T01:15:55;4.50;;;1.90;;
4096;SDS011;2062;50.694;7.246;2022-12-07T01:18:26;4.75;;;2.00;;
4096;SDS011;2062;50.694;7.246;2022-12-07T01:21:00;5.55;;;2.17;;
4096;SDS011;2062;50.694;7.246;2022-12-07T01:23:27;6.50;;;2.00;;
4096;SDS011;2062;50.694;7.246;2022-12-07T01:25:55;4.82;;;1.90;;
4096;SDS011;2062;50.694;7.246;2022-12-07T01:28:22;4.67;;;1.93;;
4096;SDS011;2062;50.694;7.246;2022-12-07T01:30:56;4.40;;;1.90;;
4096;SDS011;2062;50.694;7.246;2022-12-07T01:33:25;4.50;;;2.13;;
4096;SDS011;2062;50.694;7.246;2022-12-07T01:35:53;4.85;;;1.77;;
4096;SDS011;2062;50.694;7.246;2022-12-07T01:38:20;4.53;;;1.95;;
4096;SDS011;2062;50.694;7.246;2022-12-07T01:40:53;4.50;;;1.90;;
4096;SDS011;2062;50.694;7.246;2022-12-07T01:43:20;4.07;;;1.95;;
4096;SDS011;2062;50.694;7.246;2022-12-07T01:45:48;4.78;;;1.88;;
4096;SDS011;2062;50.694;7.246;2022-12-07T01:48:16;5.50;;;2.00;;
4096;SDS011;2062;50.694;7.246;2022-12-07T01:50:47;4.28;;;1.83;;
4096;SDS011;2062;50.694;7.246;2022-12-07T01:53:16;4.43;;;1.83;;
4096;SDS011;2062;50.694;7.246;2022-12-07T01:55:44;5.97;;;2.10;;
4096;SDS011;2062;50.694;7.246;2022-12-07T01:58:13;4.95;;;2.15;;
4096;SDS011;2062;50.694;7.246;2022-12-07T02:00:42;4.70;;;1.88;;
4096;SDS011;2062;50.694;7.246;2022-12-07T02:03:09;4.28;;;1.98;;
4096;SDS011;2062;50.694;7.246;2022-12-07T02:05:40;4.90;;;2.10;;
4096;SDS011;2062;50.694;7.246;2022-12-07T02:08:10;5.25;;;1.90;;
4096;SDS011;2062;50.694;7.246;2022-12-07T02:10:38;3.78;;;1.70;;
4096;SDS011;2062;50.694;7.246;2022-12-07T02:13:05;4.38;;;1.77;;
4096;SDS011;2062;50.694;7.246;2022-12-07T02:15:39;4.75;;;1.75;;
4096;SDS011;2062;50.694;7.246;2022-12-07T02:18:14;5.07;;;2.00;;
4096;SDS011;2062;50.694;7.246;2022-12-07T02:20:50;4.30;;;1.95;;
4096;SDS011;2062;50.694;7.246;2022-12-07T02:23:28;4.47;;;2.00;;
4096;SDS011;2062;50.694;7.246;2022-12-07T02:26:23;4.20;;;1.90;;
4096;SDS011;2062;50.694;7.246;2022-12-07T02:29:13;4.97;;;2.00;;
4096;SDS011;2062;50.694;7.246;2022-12-07T02:31:47;4.30;;;1.80;;
4096;SDS011;2062;50.694;7.246;2022-12-07T02:34:22;4.13;;;1.73;;
4096;SDS011;2062;50.694;7.246;2022-12-07T02:36:57;4.95;;;2.10;;
4096;SDS011;2062;50.694;7.246;2022-12-07T02:39:31;4.65;;;2.00;;
4096;SDS011;2062;50.694;7.246;2022-12-07T02:42:05;4.40;;;2.00;;
4096;SDS011;2062;50.694;7.246;2022-12-07T02:44:37;4.30;;;1.80;;
4096;SDS011;2062;50.694;7.246;2022-12-07T02:47:06;5.25;;;2.10;;
4096;SDS011;2062;50.694;7.246;2022-12-07T02:49:36;4.22;;;2.03;;
4096;SDS011;2062;50.694;7.246;2022-12-07T02:52:04;4.60;;;1.90;;
4096;SDS011;2062;50.694;7.246;2022-12-07T02:54:30;3.95;;;1.77;;
4096;SDS011;2062;50.694;7.246;2022-12-07T02:57:00;5.10;;;2.03;;
4096;SDS011;2062;50.694;7.246;2022-12-07T02:59:40;4.20;;;1.83;;
4096;SDS011;2062;50.694;7.246;2022-12-07T03:02:22;5.10;;;2.25;;
4096;SDS011;2062;50.694;7.246;2022-12-07T03:04:58;4.10;;;1.80;;
4096;SDS011;2062;50.694;7.246;2022-12-07T03:07:40;4.82;;;2.03;;
4096;SDS011;2062;50.694;7.246;2022-12-07T03:10:17;4.03;;;1.80;;
4096;SDS011;2062;50.694;7.246;2022-12-07T03:12:51;4.97;;;2.25;;
4096;SDS011;2062;50.694;7.246;2022-12-07T03:15:29;4.40;;;1.90;;
4096;SDS011;2062;50.694;7.246;2022-12-07T03:18:00;4.40;;;2.00;;
4096;SDS011;2062;50.694;7.246;2022-12-07T03:20:29;4.78;;;2.38;;
4096;SDS011;2062;50.694;7.246;2022-12-07T03:22:58;4.40;;;2.10;;
4096;SDS011;2062;50.694;7.246;2022-12-07T03:25:26;4.07;;;1.88;;
4096;SDS011;2062;50.694;7.246;2022-12-07T03:27:54;4.82;;;1.90;;
4096;SDS011;2062;50.694;7.246;2022-12-07T03:30:24;4.63;;;2.00;;
4096;SDS011;2062;50.694;7.246;2022-12-07T03:32:57;4.80;;;2.00;;
4096;SDS011;2062;50.694;7.246;2022-12-07T03:35:30;4.13;;;1.80;;
4096;SDS011;2062;50.694;7.246;2022-12-07T03:38:02;4.40;;;1.70;;
4096;SDS011;2062;50.694;7.246;2022-12-07T03:40:39;4.32;;;2.03;;
4096;SDS011;2062;50.694;7.246;2022-12-07T03:43:09;4.65;;;2.05;;
4096;SDS011;2062;50.694;7.246;2022-12-07T03:45:37;4.40;;;2.00;;
4096;SDS011;2062;50.694;7.246;2022-12-07T03:48:08;4.17;;;1.80;;
4096;SDS011;2062;50.694;7.246;2022-12-07T03:50:49;4.50;;;2.28;;
4096;SDS011;2062;50.694;7.246;2022-12-07T03:53:21;4.10;;;2.05;;
4096;SDS011;2062;50.694;7.246;2022-12-07T03:55:50;4.40;;;2.17;;
4096;SDS011;2062;50.694;7.246;2022-12-07T03:58:19;5.07;;;2.38;;
4096;SDS011;2062;50.694;7.246;2022-12-07T04:00:48;4.17;;;1.77;;
4096;SDS011;2062;50.694;7.246;2022-12-07T04:03:17;4.90;;;2.20;;
4096;SDS011;2062;50.694;7.246;2022-12-07T04:05:44;4.78;;;2.20;;
4096;SDS011;2062;50.694;7.246;2022-12-07T04:08:11;4.20;;;1.75;;
4096;SDS011;2062;50.694;7.246;2022-12-07T04:10:38;4.97;;;2.30;;
4096;SDS011;2062;50.694;7.246;2022-12-07T04:13:04;4.30;;;2.00;;
4096;SDS011;2062;50.694;7.246;2022-12-07T04:15:31;4.68;;;2.00;;
4096;SDS011;2062;50.694;7.246;2022-12-07T04:17:58;4.20;;;2.20;;
4096;SDS011;2062;50.694;7.246;2022-12-07T04:20:26;4.85;;;2.40;;
4096;SDS011;2062;50.694;7.246;2022-12-07T04:22:53;4.95;;;2.20;;
4096;SDS011;2062;50.694;7.246;2022-12-07T04:25:19;4.20;;;2.03;;
4096;SDS011;2062;50.694;7.246;2022-12-07T04:27:46;4.38;;;1.95;;
4096;SDS011;2062;50.694;7.246;2022-12-07T04:30:13;5.10;;;2.10;;
4096;SDS011;2062;50.694;7.246;2022-12-07T04:32:40;3.75;;;1.88;;
4096;SDS011;2062;50.694;7.246;2022-12-07T04:35:07;4.30;;;1.95;;
4096;SDS011;2062;50.694;7.246;2022-12-07T04:37:36;4.07;;;1.90;;
4096;SDS011;2062;50.694;7.246;2022-12-07T04:40:04;4.68;;;2.00;;
4096;SDS011;2062;50.694;7.246;2022-12-07T04:42:32;5.22;;;2.42;;
4096;SDS011;2062;50.694;7.246;2022-12-07T04:44:59;4.75;;;2.17;;
4096;SDS011;2062;50.694;7.246;2022-12-07T04:47:26;4.57;;;2.10;;
4096;SDS011;2062;50.694;7.246;2022-12-07T04:49:53;4.53;;;2.23;;
4096;SDS011;2062;50.694;7.246;2022-12-07T04:52:19;4.25;;;2.10;;
4096;SDS011;2062;50.694;7.246;2022-12-07T04:54:47;4.75;;;2.55;;
4096;SDS011;2062;50.694;7.246;2022-12-07T04:57:14;4.00;;;1.90;;
4096;SDS011;2062;50.694;7.246;2022-12-07T04:59:41;4.78;;;2.03;;
4096;SDS011;2062;50.694;7.246;2022-12-07T05:02:08;4.17;;;2.00;;
4096;SDS011;2062;50.694;7.246;2022-12-07T05:04:35;4.53;;;2.10;;
4096;SDS011;2062;50.694;7.246;2022-12-07T05:07:01;5.55;;;2.08;;
4096;SDS011;2062;50.694;7.246;2022-12-07T05:09:28;4.95;;;2.00;;
4096;SDS011;2062;50.694;7.246;2022-12-07T05:11:56;4.60;;;2.13;;
4096;SDS011;2062;50.694;7.246;2022-12-07T05:14:23;4.80;;;2.00;;
4096;SDS011;2062;50.694;7.246;2022-12-07T05:16:50;5.80;;;1.77;;
4096;SDS011;2062;50.694;7.246;2022-12-07T05:19:18;7.82;;;2.00;;
4096;SDS011;2062;50.694;7.246;2022-12-07T05:21:45;4.15;;;1.80;;
4096;SDS011;2062;50.694;7.246;2022-12-07T05:24:13;5.70;;;2.17;;
4096;SDS011;2062;50.694;7.246;2022-12-07T05:26:41;10.20;;;2.03;;
4096;SDS011;2062;50.694;7.246;2022-12-07T05:29:11;7.63;;;2.00;;
4096;SDS011;2062;50.694;7.246;2022-12-07T05:31:39;6.80;;;2.17;;
4096;SDS011;2062;50.694;7.246;2022-12-07T05:34:06;5.55;;;2.30;;
4096;SDS011;2062;50.694;7.246;2022-12-07T05:36:33;7.07;;;2.00;;
4096;SDS011;2062;50.694;7.246;2022-12-07T05:39:00;7.90;;;2.10;;
4096;SDS011;2062;50.694;7.246;2022-12-07T05:41:26;5.47;;;1.90;;
4096;SDS011;2062;50.694;7.246;2022-12-07T05:44:12;7.22;;;1.90;;
4096;SDS011;2062;50.694;7.246;2022-12-07T05:46:40;5.15;;;1.85;;
4096;SDS011;2062;50.694;7.246;2022-12-07T05:49:06;6.75;;;2.00;;
4096;SDS011;2062;50.694;7.246;2022-12-07T05:51:33;6.07;;;2.10;;
4096;SDS011;2062;50.694;7.246;2022-12-07T05:54:00;5.78;;;2.22;;
4096;SDS011;2062;50.694;7.246;2022-12-07T05:56:26;7.18;;;2.33;;
4096;SDS011;2062;50.694;7.246;2022-12-07T05:58:53;5.10;;;2.10;;
4096;SDS011;2062;50.694;7.246;2022-12-07T06:01:39;5.75;;;1.90;;
4096;SDS011;2062;50.694;7.246;2022-12-07T06:04:06;7.27;;;2.20;;
4096;SDS011;2062;50.694;7.246;2022-12-07T06:06:33;7.00;;;2.28;;
4096;SDS011;2062;50.694;7.246;2022-12-07T06:09:00;5.22;;;1.83;;
4096;SDS011;2062;50.694;7.246;2022-12-07T06:11:27;8.57;;;2.60;;
4096;SDS011;2062;50.694;7.246;2022-12-07T06:14:11;5.32;;;2.33;;
4096;SDS011;2062;50.694;7.246;2022-12-07T06:16:39;9.80;;;2.50;;
4096;SDS011;2062;50.694;7.246;2022-12-07T06:19:06;6.63;;;2.30;;
4096;SDS011;2062;50.694;7.246;2022-12-07T06:21:33;10.20;;;2.25;;
4096;SDS011;2062;50.694;7.246;2022-12-07T06:24:00;5.85;;;2.03;;
4096;SDS011;2062;50.694;7.246;2022-12-07T06:26:27;10.23;;;2.22;;
4096;SDS011;2062;50.694;7.246;2022-12-07T06:28:54;7.13;;;2.13;;
4096;SDS011;2062;50.694;7.246;2022-12-07T06:31:21;15.48;;;2.30;;
4096;SDS011;2062;50.694;7.246;2022-12-07T06:33:49;5.20;;;2.00;;
4096;SDS011;2062;50.694;7.246;2022-12-07T06:36:16;5.93;;;2.03;;
4096;SDS011;2062;50.694;7.246;2022-12-07T06:38:43;7.65;;;2.08;;
4096;SDS011;2062;50.694;7.246;2022-12-07T06:41:09;6.27;;;2.10;;
4096;SDS011;2062;50.694;7.246;2022-12-07T06:43:36;8.07;;;2.30;;
4096;SDS011;2062;50.694;7.246;2022-12-07T06:46:03;8.13;;;2.10;;
4096;SDS011;2062;50.694;7.246;2022-12-07T06:48:30;6.45;;;2.00;;
4096;SDS011;2062;50.694;7.246;2022-12-07T06:50:58;5.05;;;1.85;;
4096;SDS011;2062;50.694;7.246;2022-12-07T06:53:25;4.50;;;1.90;;
4096;SDS011;2062;50.694;7.246;2022-12-07T06:55:52;7.55;;;2.17;;
4096;SDS011;2062;50.694;7.246;2022-12-07T06:58:19;4.55;;;1.75;;
4096;SDS011;2062;50.694;7.246;2022-12-07T07:00:47;5.18;;;1.98;;
4096;SDS011;2062;50.694;7.246;2022-12-07T07:03:14;5.40;;;2.08;;
4096;SDS011;2062;50.694;7.246;2022-12-07T07:05:41;4.87;;;1.83;;
4096;SDS011;2062;50.694;7.246;2022-12-07T07:08:09;7.00;;;2.00;;
4096;SDS011;2062;50.694;7.246;2022-12-07T07:10:36;5.05;;;1.80;;
4096;SDS011;2062;50.694;7.246;2022-12-07T07:13:03;4.68;;;2.03;;
4096;SDS011;2062;50.694;7.246;2022-12-07T07:15:30;7.10;;;1.80;;
4096;SDS011;2062;50.694;7.246;2022-12-07T07:17:57;7.30;;;1.70;;
4096;SDS011;2062;50.694;7.246;2022-12-07T07:20:24;4.68;;;1.88;;
4096;SDS011;2062;50.694;7.246;2022-12-07T07:22:53;6.25;;;2.45;;
4096;SDS011;2062;50.694;7.246;2022-12-07T07:25:21;4.55;;;1.70;;
4096;SDS011;2062;50.694;7.246;2022-12-07T07:27:48;4.65;;;1.85;;
4096;SDS011;2062;50.694;7.246;2022-12-07T07:30:15;4.17;;;1.70;;
4096;SDS011;2062;50.694;7.246;2022-12-07T07:32:42;5.47;;;1.92;;
4096;SDS011;2062;50.694;7.246;2022-12-07T07:35:09;6.00;;;1.80;;
4096;SDS011;2062;50.694;7.246;2022-12-07T07:37:35;5.68;;;1.88;;
4096;SDS011;2062;50.694;7.246;2022-12-07T07:40:02;5.50;;;1.88;;
4096;SDS011;2062;50.694;7.246;2022-12-07T07:42:31;6.00;;;1.93;;
4096;SDS011;2062;50.694;7.246;2022-12-07T07:44:58;4.93;;;1.63;;
4096;SDS011;2062;50.694;7.246;2022-12-07T07:47:25;4.03;;;1.80;;
4096;SDS011;2062;50.694;7.246;2022-12-07T07:49:52;5.47;;;1.80;;
4096;SDS011;2062;50.694;7.246;2022-12-07T07:52:18;4.50;;;1.95;;
4096;SDS011;2062;50.694;7.246;2022-12-07T07:54:45;4.90;;;1.80;;
4096;SDS011;2062;50.694;7.246;2022-12-07T07:57:12;3.90;;;1.65;;
4096;SDS011;2062;50.694;7.246;2022-12-07T07:59:40;4.35;;;1.80;;
4096;SDS011;2062;50.694;7.246;2022-12-07T08:02:07;4.50;;;1.85;;
4096;SDS011;2062;50.694;7.246;2022-12-07T08:04:39;4.25;;;1.70;;
4096;SDS011;2062;50.694;7.246;2022-12-07T08:07:06;4.17;;;1.57;;
4096;SDS011;2062;50.694;7.246;2022-12-07T08:09:32;4.65;;;1.73;;
4096;SDS011;2062;50.694;7.246;2022-12-07T08:11:59;5.40;;;2.20;;
4096;SDS011;2062;50.694;7.246;2022-12-07T08:14:26;5.70;;;1.77;;
4096;SDS011;2062;50.694;7.246;2022-12-07T08:16:55;5.00;;;1.70;;
4096;SDS011;2062;50.694;7.246;2022-12-07T08:19:21;4.23;;;1.63;;
4096;SDS011;2062;50.694;7.246;2022-12-07T08:21:48;4.10;;;1.50;;
4096;SDS011;2062;50.694;7.246;2022-12-07T08:24:15;4.40;;;1.95;;
4096;SDS011;2062;50.694;7.246;2022-12-07T08:26:43;5.97;;;1.73;;
4096;SDS011;2062;50.694;7.246;2022-12-07T08:29:10;4.28;;;1.80;;
4096;SDS011;2062;50.694;7.246;2022-12-07T08:31:36;4.70;;;1.80;;
4096;SDS011;2062;50.694;7.246;2022-12-07T08:34:06;4.18;;;1.85;;
4096;SDS011;2062;50.694;7.246;2022-12-07T08:36:32;4.18;;;1.80;;
4096;SDS011;2062;50.694;7.246;2022-12-07T08:38:59;4.22;;;1.60;;
4096;SDS011;2062;50.694;7.246;2022-12-07T08:41:26;4.53;;;1.85;;
4096;SDS011;2062;50.694;7.246;2022-12-07T08:43:52;5.30;;;1.70;;
4096;SDS011;2062;50.694;7.246;2022-12-07T08:46:20;3.88;;;1.52;;
4096;SDS011;2062;50.694;7.246;2022-12-07T08:48:52;4.20;;;1.60;;
4096;SDS011;2062;50.694;7.246;2022-12-07T08:51:22;4.38;;;1.73;;
4096;SDS011;2062;50.694;7.246;2022-12-07T08:53:50;4.05;;;1.80;;
4096;SDS011;2062;50.694;7.246;2022-12-07T08:56:18;4.23;;;1.77;;
4096;SDS011;2062;50.694;7.246;2022-12-07T08:58:46;4.18;;;1.70;;
4096;SDS011;2062;50.694;7.246;2022-12-07T09:01:14;4.30;;;2.00;;
4096;SDS011;2062;50.694;7.246;2022-12-07T09:03:41;4.97;;;1.75;;
4096;SDS011;2062;50.694;7.246;2022-12-07T09:06:08;4.15;;;1.50;;
4096;SDS011;2062;50.694;7.246;2022-12-07T09:08:37;4.83;;;1.60;;
4096;SDS011;2062;50.694;7.246;2022-12-07T09:11:07;3.83;;;1.60;;
4096;SDS011;2062;50.694;7.246;2022-12-07T09:13:34;4.40;;;1.80;;
4096;SDS011;2062;50.694;7.246;2022-12-07T09:16:01;5.88;;;1.88;;
4096;SDS011;2062;50.694;7.246;2022-12-07T09:18:28;4.35;;;1.48;;
4096;SDS011;2062;50.694;7.246;2022-12-07T09:20:55;3.87;;;1.50;;
4096;SDS011;2062;50.694;7.246;2022-12-07T09:23:22;4.28;;;1.83;;
4096;SDS011;2062;50.694;7.246;2022-12-07T09:25:50;4.10;;;1.70;;
4096;SDS011;2062;50.694;7.246;2022-12-07T09:28:17;4.88;;;1.83;;
4096;SDS011;2062;50.694;7.246;2022-12-07T09:30:45;4.32;;;1.60;;
4096;SDS011;2062;50.694;7.246;2022-12-07T09:33:12;5.07;;;1.60;;
4096;SDS011;2062;50.694;7.246;2022-12-07T09:35:43;4.20;;;1.80;;
4096;SDS011;2062;50.694;7.246;2022-12-07T09:38:11;4.43;;;1.77;;
4096;SDS011;2062;50.694;7.246;2022-12-07T09:40:38;4.43;;;1.45;;
4096;SDS011;2062;50.694;7.246;2022-12-07T09:43:10;4.28;;;1.50;;
4096;SDS011;2062;50.694;7.246;2022-12-07T09:45:39;3.80;;;1.57;;
4096;SDS011;2062;50.694;7.246;2022-12-07T09:48:09;4.07;;;1.60;;
4096;SDS011;2062;50.694;7.246;2022-12-07T09:50:42;4.30;;;1.70;;
4096;SDS011;2062;50.694;7.246;2022-12-07T09:53:10;3.83;;;1.67;;
4096;SDS011;2062;50.694;7.246;2022-12-07T09:55:41;3.97;;;1.40;;
4096;SDS011;2062;50.694;7.246;2022-12-07T09:58:12;3.60;;;1.60;;
4096;SDS011;2062;50.694;7.246;2022-12-07T10:00:45;4.93;;;1.65;;
4096;SDS011;2062;50.694;7.246;2022-12-07T10:03:11;4.25;;;1.70;;
4096;SDS011;2062;50.694;7.246;2022-12-07T10:05:39;3.90;;;1.55;;
4096;SDS011;2062;50.694;7.246;2022-12-07T10:08:09;4.65;;;1.50;;
4096;SDS011;2062;50.694;7.246;2022-12-07T10:10:38;4.30;;;1.67;;
4096;SDS011;2062;50.694;7.246;2022-12-07T10:13:06;4.03;;;1.60;;
4096;SDS011;2062;50.694;7.246;2022-12-07T10:15:44;4.03;;;1.50;;
4096;SDS011;2062;50.694;7.246;2022-12-07T10:21:06;4.50;;;1.75;;
4096;SDS011;2062;50.694;7.246;2022-12-07T10:23:38;4.10;;;1.50;;
4096;SDS011;2062;50.694;7.246;2022-12-07T10:28:55;4.40;;;1.60;;
4096;SDS011;2062;50.694;7.246;2022-12-07T10:31:26;3.78;;;1.50;;
4096;SDS011;2062;50.694;7.246;2022-12-07T10:33:53;3.72;;;1.40;;
4096;SDS011;2062;50.694;7.246;2022-12-07T10:36:22;4.03;;;1.53;;
4096;SDS011;2062;50.694;7.246;2022-12-07T10:38:52;4.28;;;1.40;;
4096;SDS011;2062;50.694;7.246;2022-12-07T10:41:24;4.30;;;1.60;;
4096;SDS011;2062;50.694;7.246;2022-12-07T10:43:52;4.82;;;1.50;;
4096;SDS011;2062;50.694;7.246;2022-12-07T10:49:42;3.50;;;1.40;;
4096;SDS011;2062;50.694;7.246;2022-12-07T10:52:38;4.47;;;1.30;;
4096;SDS011;2062;50.694;7.246;2022-12-07T10:55:20;4.22;;;1.60;;
4096;SDS011;2062;50.694;7.246;2022-12-07T10:57:56;4.45;;;1.40;;
4096;SDS011;2062;50.694;7.246;2022-12-07T11:00:39;4.10;;;1.48;;
4096;SDS011;2062;50.694;7.246;2022-12-07T11:06:09;3.90;;;1.30;;
4096;SDS011;2062;50.694;7.246;2022-12-07T11:08:47;3.50;;;1.33;;
4096;SDS011;2062;50.694;7.246;2022-12-07T11:11:27;3.80;;;1.40;;
4096;SDS011;2062;50.694;7.246;2022-12-07T11:14:01;3.40;;;1.20;;
4096;SDS011;2062;50.694;7.246;2022-12-07T11:16:38;5.37;;;1.30;;
4096;SDS011;2062;50.694;7.246;2022-12-07T11:19:24;4.68;;;1.52;;
4096;SDS011;2062;50.694;7.246;2022-12-07T11:22:13;4.03;;;1.50;;
4096;SDS011;2062;50.694;7.246;2022-12-07T11:24:48;4.07;;;1.30;;
4096;SDS011;2062;50.694;7.246;2022-12-07T11:27:21;4.07;;;1.52;;
4096;SDS011;2062;50.694;7.246;2022-12-07T11:30:01;3.60;;;1.20;;
4096;SDS011;2062;50.694;7.246;2022-12-07T11:32:44;3.30;;;1.20;;
4096;SDS011;2062;50.694;7.246;2022-12-07T11:35:20;4.10;;;1.40;;
4096;SDS011;2062;50.694;7.246;2022-12-07T11:37:59;3.53;;;1.30;;
4096;SDS011;2062;50.694;7.246;2022-12-07T11:40:34;3.20;;;1.30;;
4096;SDS011;2062;50.694;7.246;2022-12-07T11:43:04;3.40;;;1.30;;
4096;SDS011;2062;50.694;7.246;2022-12-07T11:45:41;3.58;;;1.27;;
4096;SDS011;2062;50.694;7.246;2022-12-07T11:48:10;3.65;;;1.50;;
4096;SDS011;2062;50.694;7.246;2022-12-07T11:50:42;3.30;;;1.20;;
4096;SDS011;2062;50.694;7.246;2022-12-07T11:53:17;4.63;;;1.40;;
4096;SDS011;2062;50.694;7.246;2022-12-07T11:55:47;4.03;;;1.23;;
4096;SDS011;2062;50.694;7.246;2022-12-07T11:58:22;3.58;;;1.20;;
4096;SDS011;2062;50.694;7.246;2022-12-07T12:01:06;3.63;;;1.40;;
4096;SDS011;2062;50.694;7.246;2022-12-07T12:03:40;3.38;;;1.20;;
4096;SDS011;2062;50.694;7.246;2022-12-07T12:06:11;3.83;;;1.40;;
4096;SDS011;2062;50.694;7.246;2022-12-07T12:08:40;3.30;;;1.30;;
4096;SDS011;2062;50.694;7.246;2022-12-07T12:11:15;3.55;;;1.40;;
4096;SDS011;2062;50.694;7.246;2022-12-07T12:13:54;4.15;;;1.45;;
4096;SDS011;2062;50.694;7.246;2022-12-07T12:16:44;3.10;;;1.00;;
4096;SDS011;2062;50.694;7.246;2022-12-07T12:19:27;3.75;;;1.20;;
4096;SDS011;2062;50.694;7.246;2022-12-07T12:22:02;4.17;;;1.40;;
4096;SDS011;2062;50.694;7.246;2022-12-07T12:24:37;4.15;;;1.40;;
4096;SDS011;2062;50.694;7.246;2022-12-07T12:27:07;3.55;;;1.25;;
4096;SDS011;2062;50.694;7.246;2022-12-07T12:29:41;3.33;;;1.30;;
4096;SDS011;2062;50.694;7.246;2022-12-07T12:32:16;3.90;;;1.45;;
4096;SDS011;2062;50.694;7.246;2022-12-07T12:35:00;3.77;;;1.33;;
4096;SDS011;2062;50.694;7.246;2022-12-07T12:37:42;3.55;;;1.25;;
4096;SDS011;2062;50.694;7.246;2022-12-07T12:49:14;4.27;;;1.40;;
4096;SDS011;2062;50.694;7.246;2022-12-07T12:55:43;3.92;;;1.20;;
4096;SDS011;2062;50.694;7.246;2022-12-07T12:58:33;3.72;;;1.13;;
4096;SDS011;2062;50.694;7.246;2022-12-07T13:10:33;3.63;;;1.23;;
4096;SDS011;2062;50.694;7.246;2022-12-07T13:13:21;3.75;;;1.10;;
4096;SDS011;2062;50.694;7.246;2022-12-07T13:16:38;4.15;;;1.20;;
4096;SDS011;2062;50.694;7.246;2022-12-07T13:19:23;3.10;;;1.10;;
4096;SDS011;2062;50.694;7.246;2022-12-07T13:25:19;3.40;;;1.30;;
4096;SDS011;2062;50.694;7.246;2022-12-07T13:27:55;3.40;;;1.20;;
4096;SDS011;2062;50.694;7.246;2022-12-07T13:30:24;3.70;;;1.60;;
4096;SDS011;2062;50.694;7.246;2022-12-07T13:32:52;3.50;;;1.30;;
4096;SDS011;2062;50.694;7.246;2022-12-07T13:35:30;3.20;;;1.10;;
4096;SDS011;2062;50.694;7.246;2022-12-07T13:37:59;3.53;;;1.30;;
4096;SDS011;2062;50.694;7.246;2022-12-07T13:40:29;3.58;;;1.25;;
4096;SDS011;2062;50.694;7.246;2022-12-07T13:42:59;3.53;;;1.40;;
4096;SDS011;2062;50.694;7.246;2022-12-07T13:45:27;4.30;;;1.10;;
4096;SDS011;2062;50.694;7.246;2022-12-07T13:48:16;3.97;;;1.40;;
4096;SDS011;2062;50.694;7.246;2022-12-07T13:50:53;3.55;;;1.30;;
4096;SDS011;2062;50.694;7.246;2022-12-07T13:53:21;3.63;;;1.30;;
4096;SDS011;2062;50.694;7.246;2022-12-07T13:55:48;3.50;;;1.40;;
4096;SDS011;2062;50.694;7.246;2022-12-07T13:58:16;3.87;;;1.27;;
4096;SDS011;2062;50.694;7.246;2022-12-07T14:00:43;3.33;;;1.17;;
4096;SDS011;2062;50.694;7.246;2022-12-07T14:03:27;4.40;;;1.42;;
4096;SDS011;2062;50.694;7.246;2022-12-07T14:09:05;3.28;;;1.30;;
4096;SDS011;2062;50.694;7.246;2022-12-07T14:11:42;3.50;;;1.13;;
4096;SDS011;2062;50.694;7.246;2022-12-07T14:14:10;4.28;;;1.40;;
4096;SDS011;2062;50.694;7.246;2022-12-07T14:16:42;3.47;;;1.20;;
4096;SDS011;2062;50.694;7.246;2022-12-07T14:22:15;4.07;;;1.30;;
4096;SDS011;2062;50.694;7.246;2022-12-07T14:24:47;3.17;;;1.10;;
4096;SDS011;2062;50.694;7.246;2022-12-07T14:27:17;4.57;;;1.10;;
4096;SDS011;2062;50.694;7.246;2022-12-07T14:29:45;4.75;;;1.33;;
4096;SDS011;2062;50.694;7.246;2022-12-07T14:32:22;3.60;;;1.13;;
4096;SDS011;2062;50.694;7.246;2022-12-07T14:34:57;3.95;;;1.20;;
4096;SDS011;2062;50.694;7.246;2022-12-07T14:37:28;3.77;;;1.27;;
4096;SDS011;2062;50.694;7.246;2022-12-07T14:39:55;3.40;;;1.20;;
4096;SDS011;2062;50.694;7.246;2022-12-07T14:42:23;4.90;;;1.48;;
4096;SDS011;2062;50.694;7.246;2022-12-07T14:44:53;3.90;;;1.23;;
4096;SDS011;2062;50.694;7.246;2022-12-07T14:47:20;3.85;;;1.30;;
4096;SDS011;2062;50.694;7.246;2022-12-07T14:49:47;3.50;;;1.10;;
4096;SDS011;2062;50.694;7.246;2022-12-07T14:52:14;3.47;;;1.30;;
4096;SDS011;2062;50.694;7.246;2022-12-07T14:54:45;3.40;;;1.33;;
4096;SDS011;2062;50.694;7.246;2022-12-07T14:57:12;4.57;;;1.30;;
4096;SDS011;2062;50.694;7.246;2022-12-07T14:59:39;7.57;;;1.60;;
4096;SDS011;2062;50.694;7.246;2022-12-07T15:02:06;3.63;;;1.10;;
4096;SDS011;2062;50.694;7.246;2022-12-07T15:04:35;4.82;;;1.20;;
4096;SDS011;2062;50.694;7.246;2022-12-07T15:07:03;3.78;;;1.23;;
4096;SDS011;2062;50.694;7.246;2022-12-07T15:09:30;3.75;;;1.02;;
4096;SDS011;2062;50.694;7.246;2022-12-07T15:11:58;3.97;;;1.33;;
4096;SDS011;2062;50.694;7.246;2022-12-07T15:14:25;3.33;;;1.20;;
4096;SDS011;2062;50.694;7.246;2022-12-07T15:16:52;4.78;;;1.38;;
4096;SDS011;2062;50.694;7.246;2022-12-07T15:19:19;3.75;;;1.38;;
4096;SDS011;2062;50.694;7.246;2022-12-07T15:21:50;3.50;;;1.10;;
4096;SDS011;2062;50.694;7.246;2022-12-07T15:24:17;3.47;;;1.10;;
4096;SDS011;2062;50.694;7.246;2022-12-07T15:26:45;4.30;;;1.50;;
4096;SDS011;2062;50.694;7.246;2022-12-07T15:29:13;5.18;;;1.30;;
4096;SDS011;2062;50.694;7.246;2022-12-07T15:31:41;3.47;;;1.20;;
4096;SDS011;2062;50.694;7.246;2022-12-07T15:34:09;3.55;;;1.20;;
4096;SDS011;2062;50.694;7.246;2022-12-07T15:36:36;3.80;;;1.10;;
4096;SDS011;2062;50.694;7.246;2022-12-07T15:39:03;6.90;;;1.30;;
4096;SDS011;2062;50.694;7.246;2022-12-07T15:41:30;5.75;;;1.38;;
4096;SDS011;2062;50.694;7.246;2022-12-07T15:43:57;5.43;;;1.42;;
4096;SDS011;2062;50.694;7.246;2022-12-07T15:46:42;4.35;;;1.10;;
4096;SDS011;2062;50.694;7.246;2022-12-07T15:49:13;4.25;;;1.50;;
4096;SDS011;2062;50.694;7.246;2022-12-07T15:51:42;6.73;;;1.47;;
4096;SDS011;2062;50.694;7.246;2022-12-07T15:54:12;5.43;;;1.27;;
4096;SDS011;2062;50.694;7.246;2022-12-07T15:56:41;4.50;;;1.45;;
4096;SDS011;2062;50.694;7.246;2022-12-07T15:59:08;4.40;;;1.80;;
4096;SDS011;2062;50.694;7.246;2022-12-07T16:01:35;5.65;;;1.63;;
4096;SDS011;2062;50.694;7.246;2022-12-07T16:04:03;6.57;;;1.73;;
4096;SDS011;2062;50.694;7.246;2022-12-07T16:06:30;5.88;;;1.40;;
4096;SDS011;2062;50.694;7.246;2022-12-07T16:08:57;7.30;;;1.70;;
4096;SDS011;2062;50.694;7.246;2022-12-07T16:11:24;6.00;;;1.67;;
4096;SDS011;2062;50.694;7.246;2022-12-07T16:13:51;7.35;;;1.60;;
4096;SDS011;2062;50.694;7.246;2022-12-07T16:16:18;6.83;;;1.90;;
4096;SDS011;2062;50.694;7.246;2022-12-07T16:18:47;5.22;;;1.63;;